Wetterdaten: aktuell Sonntag, 08.12.2019 15:48
Datum Zeit Temp. A. Feuchte A. Luftdruck Regen Wind Richtung Richtung Taupunkt Windchill Windben
08.12.2019 15:48 4,1 C 81 % 1012,9 hPa 0,0 l/m 3,2 km/h (1 Bft) SW 225 1,1 C 4,1 C 4,8 km/h (1 Bft)
08.12.2019 14:48 7,6 C 75 % 1013,4 hPa 0,0 l/m 8,0 km/h (2 Bft) S-SW 202 3,5 C 6,3 C 9,7 km/h (2 Bft)
08.12.2019 13:48 9,2 C 72 % 1014,0 hPa 0,0 l/m 14,5 km/h (3 Bft) SW 225 4,4 C 4,4 C 17,7 km/h (3 Bft)
08.12.2019 12:48 9,5 C 70 % 1014,9 hPa 0,0 l/m 14,5 km/h (3 Bft) SW 225 4,3 C 4,7 C 17,7 km/h (3 Bft)
08.12.2019 11:48 7,3 C 75 % 1016,4 hPa 0,2 l/m 8,0 km/h (2 Bft) S-SW 202 3,2 C 6,0 C 9,7 km/h (2 Bft)
08.12.2019 10:48 5,3 C 80 % 1017,2 hPa 0,0 l/m 8,0 km/h (2 Bft) SW 225 2,1 C 3,9 C 9,7 km/h (2 Bft)
08.12.2019 09:48 2,2 C 93 % 1017,9 hPa 0,0 l/m 1,6 km/h (1 Bft) S-SW 202 1,2 C 2,2 C 3,2 km/h (1 Bft)
08.12.2019 08:48 -0,7 C 94 % 1018,4 hPa 0,0 l/m 3,2 km/h (1 Bft) W-SW 247 -1,5 C -0,7 C 3,2 km/h (1 Bft)
08.12.2019 07:48 -2,1 C 94 % 1018,9 hPa 0,0 l/m 3,2 km/h (1 Bft) W-SW 247 -2,9 C -2,1 C 4,8 km/h (1 Bft)
08.12.2019 06:48 -2,6 C 93 % 1018,9 hPa 0,0 l/m 1,6 km/h (1 Bft) W-SW 247 -3,6 C -2,6 C 1,6 km/h (1 Bft)
08.12.2019 05:48 -2,2 C 93 % 1018,9 hPa 0,0 l/m 3,2 km/h (1 Bft) W-SW 247 -3,2 C -2,2 C 4,8 km/h (1 Bft)
08.12.2019 04:48 -2,4 C 93 % 1019,3 hPa 0,0 l/m 1,6 km/h (1 Bft) W-SW 247 -3,4 C -2,4 C 4,8 km/h (1 Bft)
08.12.2019 03:48 -1,6 C 93 % 1020,0 hPa 0,0 l/m 1,6 km/h (1 Bft) W-SW 247 -2,6 C -1,6 C 3,2 km/h (1 Bft)
08.12.2019 02:48 -0,3 C 93 % 1021,0 hPa 0,0 l/m 0,0 km/h (0 Bft) W-SW 247 -1,3 C -0,3 C 1,6 km/h (1 Bft)
08.12.2019 01:48 0,2 C 93 % 1021,5 hPa 0,0 l/m 0,0 km/h (0 Bft) N 0 -0,8 C 0,2 C 0,0 km/h (0 Bft)
08.12.2019 00:48 1,2 C 91 % 1021,7 hPa 0,0 l/m 0,0 km/h (0 Bft) N 0 -0,1 C 1,2 C 0,0 km/h (0 Bft)
07.12.2019 23:48 2,2 C 92 % 1022,1 hPa 0,0 l/m 0,0 km/h (0 Bft) N 0 1,0 C 2,2 C 1,6 km/h (1 Bft)
07.12.2019 22:48 2,8 C 91 % 1022,3 hPa 0,0 l/m 0,0 km/h (0 Bft) N 0 1,5 C 2,8 C 0,0 km/h (0 Bft)
07.12.2019 21:48 2,7 C 92 % 1022,3 hPa 0,0 l/m 0,0 km/h (0 Bft) W-SW 247 1,5 C 2,7 C 1,6 km/h (1 Bft)
07.12.2019 20:48 2,4 C 91 % 1022,7 hPa 0,0 l/m 3,2 km/h (1 Bft) W-SW 247 1,1 C 2,4 C 3,2 km/h (1 Bft)
07.12.2019 19:48 2,7 C 89 % 1022,7 hPa 0,0 l/m 6,4 km/h (2 Bft) S-SW 202 1,1 C 2,7 C 9,7 km/h (2 Bft)
07.12.2019 18:48 3,4 C 88 % 1022,3 hPa 0,0 l/m 8,0 km/h (2 Bft) S-SW 202 1,6 C 1,9 C 11,3 km/h (2 Bft)
07.12.2019 17:48 3,7 C 86 % 1022,0 hPa 0,0 l/m 6,4 km/h (2 Bft) SW 225 1,6 C 3,7 C 8,0 km/h (2 Bft)
07.12.2019 16:48 4,3 C 86 % 1021,7 hPa 0,0 l/m 8,0 km/h (2 Bft) SW 225 2,2 C 2,9 C 9,7 km/h (2 Bft)
07.12.2019 16:00 5,8 C 80 % 1021,4 hPa 0,0 l/m 11,3 km/h (2 Bft) SW 225 2,6 C 2,1 C 12,9 km/h (3 Bft)
_ Min-Zeit 07:21 13:00 15:26 - 20:09 - - 07:21 07:21 20:09
Minimum _ -2,8 C 67 % 1012,9 hPa - 0,0 km/h (0 Bft) - - -3,8 C -2,8 C 0,0 km/h (0 Bft)
_ Max-Zeit 13:07 08:36 19:25 11:04 13:12 - - 12:54 12:11 12:39
Maximum _ 10,0 C 95 % 1022,9 hPa 0,2 l/m 22,5 km/h
SW (4 Bft)
- - 4,7 C 8,3 C 27,4 km/h
SW (4 Bft)
Durchschnitt _ 2,8 C 87 % 1019,6 hPa #0,2 l/m 4,8 km/h (1 Bft) W-SW - 0,8 C 1,8 C 6,1 km/h (2 Bft)